createdAt,value
2019-02-17T00:01:49.788Z,2.10
2019-02-17T00:04:18.446Z,2.33
2019-02-17T00:06:47.077Z,2.50
2019-02-17T00:09:15.778Z,2.03
2019-02-17T00:11:44.394Z,2.27
2019-02-17T00:14:12.978Z,2.22
2019-02-17T00:16:41.558Z,1.73
2019-02-17T00:19:10.630Z,2.22
2019-02-17T00:21:39.209Z,2.30
2019-02-17T00:24:08.951Z,2.35
2019-02-17T00:26:37.529Z,2.50
2019-02-17T00:29:06.111Z,2.30
2019-02-17T00:31:34.692Z,2.10
2019-02-17T00:34:03.277Z,2.30
2019-02-17T00:36:31.940Z,2.30
2019-02-17T00:39:00.527Z,2.20
2019-02-17T00:41:29.098Z,2.03
2019-02-17T00:43:57.720Z,2.20
2019-02-17T00:46:26.299Z,2.43
2019-02-17T00:48:54.886Z,2.07
2019-02-17T00:51:23.550Z,2.00
2019-02-17T00:53:52.165Z,2.20
2019-02-17T00:56:20.750Z,2.10
2019-02-17T00:58:49.333Z,1.90
2019-02-17T01:01:17.914Z,2.10
2019-02-17T01:03:46.490Z,1.90
2019-02-17T01:06:15.275Z,2.17
2019-02-17T01:08:43.915Z,1.30
2019-02-17T01:11:12.573Z,1.95
2019-02-17T01:13:41.275Z,1.50
2019-02-17T01:16:10.777Z,1.65
2019-02-17T01:18:39.361Z,1.90
2019-02-17T01:21:08.444Z,1.52
2019-02-17T01:23:37.031Z,1.97
2019-02-17T01:26:05.612Z,2.57
2019-02-17T01:28:34.191Z,2.40
2019-02-17T01:31:02.874Z,1.97
2019-02-17T01:33:31.451Z,1.80
2019-02-17T01:36:00.034Z,2.00
2019-02-17T01:38:28.607Z,2.03
2019-02-17T01:40:57.182Z,2.20
2019-02-17T01:43:25.766Z,2.03
2019-02-17T01:45:54.368Z,2.10
2019-02-17T01:48:22.986Z,2.13
2019-02-17T01:50:51.562Z,2.03
2019-02-17T01:53:20.143Z,2.10
2019-02-17T01:55:48.760Z,1.80
2019-02-17T01:58:17.375Z,1.60
2019-02-17T02:00:45.955Z,1.77
2019-02-17T02:03:14.537Z,2.08
2019-02-17T02:05:43.132Z,2.00
2019-02-17T02:08:11.713Z,1.90
2019-02-17T02:10:40.295Z,2.10
2019-02-17T02:13:09.006Z,2.03
2019-02-17T02:15:37.582Z,2.00
2019-02-17T02:18:06.161Z,2.20
2019-02-17T02:20:34.792Z,2.27
2019-02-17T02:23:03.374Z,2.20
2019-02-17T02:25:32.012Z,1.93
2019-02-17T02:28:00.597Z,1.73
2019-02-17T02:30:29.180Z,1.40
2019-02-17T02:32:57.778Z,2.10
2019-02-17T02:35:26.459Z,1.62
2019-02-17T02:37:55.034Z,1.70
2019-02-17T02:40:23.616Z,1.35
2019-02-17T02:42:52.198Z,1.60
2019-02-17T02:45:20.785Z,1.70
2019-02-17T02:47:49.375Z,1.53
2019-02-17T02:50:17.945Z,1.40
2019-02-17T02:52:46.572Z,1.60
2019-02-17T02:55:15.150Z,1.27
2019-02-17T02:57:43.726Z,1.30
2019-02-17T03:00:13.204Z,1.47
2019-02-17T03:02:41.818Z,1.30
2019-02-17T03:05:10.901Z,1.27
2019-02-17T03:07:39.471Z,1.50
2019-02-17T03:10:09.747Z,1.40
2019-02-17T03:12:38.322Z,1.37
2019-02-17T03:15:09.861Z,1.53
2019-02-17T03:17:38.445Z,1.10
2019-02-17T03:20:09.233Z,1.30
2019-02-17T03:22:38.111Z,1.27
2019-02-17T03:25:07.331Z,1.20
2019-02-17T03:27:35.909Z,1.17
2019-02-17T03:30:06.598Z,1.10
2019-02-17T03:32:35.187Z,1.37
2019-02-17T03:35:03.755Z,1.30
2019-02-17T03:37:32.347Z,1.27
2019-02-17T03:40:00.988Z,1.30
2019-02-17T03:42:29.571Z,1.30
2019-02-17T03:44:58.169Z,1.37
2019-02-17T03:47:26.740Z,1.20
2019-02-17T03:49:55.316Z,1.37
2019-02-17T03:52:23.896Z,1.30
2019-02-17T03:54:52.504Z,1.23
2019-02-17T03:57:21.118Z,1.80
2019-02-17T03:59:49.711Z,1.50
2019-02-17T04:02:18.296Z,1.45
2019-02-17T04:04:47.030Z,1.40
2019-02-17T04:07:15.611Z,1.12
2019-02-17T04:09:44.188Z,1.40
2019-02-17T04:12:12.766Z,1.70
2019-02-17T04:14:41.382Z,1.33
2019-02-17T04:17:10.685Z,1.40
2019-02-17T04:19:39.264Z,1.10
2019-02-17T04:22:08.982Z,1.12
2019-02-17T04:24:37.563Z,1.20
2019-02-17T04:27:06.185Z,1.30
2019-02-17T04:29:34.762Z,1.43
2019-02-17T04:32:03.339Z,1.50
2019-02-17T04:34:31.927Z,1.30
2019-02-17T04:37:00.503Z,1.53
2019-02-17T04:39:29.084Z,1.40
2019-02-17T04:41:57.662Z,1.60
2019-02-17T04:44:26.267Z,1.47
2019-02-17T04:46:54.826Z,1.60
2019-02-17T04:49:23.405Z,1.37
2019-02-17T04:51:51.987Z,1.30
2019-02-17T04:54:20.581Z,1.90
2019-02-17T04:56:49.161Z,1.57
2019-02-17T04:59:17.826Z,1.50
2019-02-17T05:01:46.442Z,1.20
2019-02-17T05:04:15.021Z,1.60
2019-02-17T05:06:43.610Z,1.50
2019-02-17T05:09:12.179Z,1.30
2019-02-17T05:11:40.799Z,1.40
2019-02-17T05:14:10.117Z,1.70
2019-02-17T05:16:38.749Z,1.40
2019-02-17T05:19:08.363Z,1.50
2019-02-17T05:21:36.945Z,1.50
2019-02-17T05:24:05.522Z,1.50
2019-02-17T05:26:34.109Z,1.23
2019-02-17T05:29:02.682Z,1.17
2019-02-17T05:31:31.310Z,1.30
2019-02-17T05:33:59.879Z,1.43
2019-02-17T05:36:28.459Z,1.13
2019-02-17T05:38:57.040Z,1.67
2019-02-17T05:41:25.627Z,1.72
2019-02-17T05:43:54.200Z,1.50
2019-02-17T05:46:22.777Z,1.50
2019-02-17T05:48:51.354Z,1.30
2019-02-17T05:51:19.941Z,1.62
2019-02-17T05:53:48.601Z,1.47
2019-02-17T05:56:17.203Z,1.55
2019-02-17T05:58:45.783Z,1.83
2019-02-17T06:01:14.372Z,1.70
2019-02-17T06:03:42.991Z,1.80
2019-02-17T06:06:11.683Z,1.30
2019-02-17T06:08:40.258Z,1.70
2019-02-17T06:11:09.045Z,1.70
2019-02-17T06:13:37.664Z,1.47
2019-02-17T06:16:07.430Z,1.35
2019-02-17T06:18:36.014Z,1.67
2019-02-17T06:21:04.602Z,1.17
2019-02-17T06:23:33.175Z,1.40
2019-02-17T06:26:01.762Z,1.40
2019-02-17T06:28:30.338Z,1.20
2019-02-17T06:30:58.915Z,1.77
2019-02-17T06:33:27.499Z,1.40
2019-02-17T06:35:56.130Z,1.17
2019-02-17T06:38:24.711Z,1.37
2019-02-17T06:40:53.282Z,1.60
2019-02-17T06:43:21.868Z,1.57
2019-02-17T06:45:50.646Z,1.40
2019-02-17T06:48:19.229Z,1.50
2019-02-17T06:50:47.813Z,1.30
2019-02-17T06:53:16.395Z,1.70
2019-02-17T06:55:46.543Z,1.47
2019-02-17T06:58:15.123Z,1.60
2019-02-17T07:00:44.910Z,1.50
2019-02-17T07:03:14.393Z,2.07
2019-02-17T07:05:50.831Z,1.80
2019-02-17T07:08:19.431Z,1.50
2019-02-17T07:10:48.022Z,1.80
2019-02-17T07:13:16.862Z,1.50
2019-02-17T07:15:45.440Z,1.80
2019-02-17T07:18:14.066Z,1.67
2019-02-17T07:20:42.686Z,1.60
2019-02-17T07:23:11.397Z,1.20
2019-02-17T07:25:41.535Z,1.47
2019-02-17T07:28:11.186Z,1.42
2019-02-17T07:30:39.798Z,1.30
2019-02-17T07:33:09.045Z,1.32
2019-02-17T07:35:37.675Z,1.50
2019-02-17T07:38:06.328Z,1.30
2019-02-17T07:40:34.903Z,1.30
2019-02-17T07:43:03.490Z,1.40
2019-02-17T07:45:32.106Z,1.30
2019-02-17T07:48:00.687Z,1.57
2019-02-17T07:50:29.274Z,1.40
2019-02-17T07:52:57.859Z,1.30
2019-02-17T07:55:26.444Z,1.43
2019-02-17T07:57:55.018Z,3.83
2019-02-17T08:00:23.606Z,3.27
2019-02-17T08:02:52.187Z,3.60
2019-02-17T08:05:20.780Z,3.35
2019-02-17T08:07:49.362Z,3.67
2019-02-17T08:10:17.943Z,3.42
2019-02-17T08:12:46.570Z,3.37
2019-02-17T08:15:15.146Z,3.10
2019-02-17T08:17:43.819Z,3.40
2019-02-17T08:20:12.506Z,2.83
2019-02-17T08:22:41.086Z,2.80
2019-02-17T08:25:10.080Z,3.63
2019-02-17T08:27:38.664Z,3.20
2019-02-17T08:30:13.796Z,3.40
2019-02-17T08:32:44.071Z,2.90
2019-02-17T08:35:13.051Z,2.67
2019-02-17T08:37:41.634Z,2.90
2019-02-17T08:40:11.139Z,2.33
2019-02-17T08:42:39.997Z,2.10
2019-02-17T08:45:10.019Z,3.62
2019-02-17T08:47:38.597Z,4.07
2019-02-17T08:50:10.179Z,3.27
2019-02-17T08:52:38.759Z,3.43
2019-02-17T08:55:09.829Z,3.47
2019-02-17T08:57:38.413Z,3.20
2019-02-17T09:00:10.254Z,3.47
2019-02-17T09:02:40.742Z,4.10
2019-02-17T09:05:10.249Z,3.57
2019-02-17T09:07:38.832Z,3.87
2019-02-17T09:10:12.446Z,3.33
2019-02-17T09:12:41.030Z,4.50
2019-02-17T09:15:11.967Z,3.87
2019-02-17T09:17:40.539Z,3.43
2019-02-17T09:20:10.937Z,3.00
2019-02-17T09:22:39.651Z,2.77
2019-02-17T09:25:12.003Z,2.43
2019-02-17T09:27:40.606Z,3.00
2019-02-17T09:30:12.583Z,3.22
2019-02-17T09:32:41.264Z,2.10
2019-02-17T09:35:10.042Z,2.90
2019-02-17T09:37:38.733Z,2.43
2019-02-17T09:40:09.771Z,2.30
2019-02-17T09:42:38.459Z,2.00
2019-02-17T09:45:14.822Z,1.90
2019-02-17T09:47:43.522Z,2.63
2019-02-17T09:50:13.938Z,2.25
2019-02-17T09:52:42.517Z,2.30
2019-02-17T09:55:12.158Z,2.15
2019-02-17T09:57:41.286Z,2.30
2019-02-17T10:00:15.237Z,2.80
2019-02-17T10:02:43.926Z,3.00
2019-02-17T10:05:13.032Z,3.47
2019-02-17T10:07:41.613Z,2.73
2019-02-17T10:10:13.354Z,3.13
2019-02-17T10:12:41.931Z,2.30
2019-02-17T10:15:13.913Z,2.73
2019-02-17T10:17:42.493Z,2.50
2019-02-17T10:20:13.733Z,2.33
2019-02-17T10:22:42.326Z,2.00
2019-02-17T10:25:11.426Z,1.93
2019-02-17T10:27:40.106Z,1.93
2019-02-17T10:30:14.702Z,2.10
2019-02-17T10:32:43.313Z,2.23
2019-02-17T10:35:12.206Z,1.72
2019-02-17T10:37:40.785Z,1.70
2019-02-17T10:40:18.005Z,1.30
2019-02-17T10:42:46.585Z,1.43
2019-02-17T10:45:15.299Z,2.27
2019-02-17T10:47:43.953Z,2.27
2019-02-17T10:50:13.275Z,1.72
2019-02-17T10:52:41.854Z,2.07
2019-02-17T10:55:12.420Z,2.03
2019-02-17T10:57:41.001Z,1.60
2019-02-17T11:00:22.874Z,1.80
2019-02-17T11:02:52.746Z,1.67
2019-02-17T11:05:21.529Z,1.62
2019-02-17T11:07:50.217Z,2.00
2019-02-17T11:10:18.903Z,1.77
2019-02-17T11:12:47.591Z,1.90
2019-02-17T11:15:20.178Z,1.60
2019-02-17T11:17:48.852Z,1.60
2019-02-17T11:20:17.541Z,1.98
2019-02-17T11:22:46.225Z,1.90
2019-02-17T11:25:14.913Z,1.77
2019-02-17T11:27:43.601Z,1.93
2019-02-17T11:30:16.381Z,1.70
2019-02-17T11:32:45.068Z,1.50
2019-02-17T11:35:13.758Z,1.22
2019-02-17T11:37:42.442Z,1.40
2019-02-17T11:40:12.627Z,1.17
2019-02-17T11:42:41.350Z,1.40
2019-02-17T11:45:15.714Z,1.20
2019-02-17T11:47:44.456Z,1.13
2019-02-17T11:50:15.658Z,1.43
2019-02-17T11:52:43.786Z,1.30
2019-02-17T11:55:14.351Z,1.25
2019-02-17T11:57:42.992Z,1.40
2019-02-17T12:00:18.027Z,1.47
2019-02-17T12:02:46.712Z,1.43
2019-02-17T12:05:15.400Z,1.75
2019-02-17T12:07:44.085Z,1.40
2019-02-17T12:10:12.875Z,1.55
2019-02-17T12:12:41.560Z,1.80
2019-02-17T12:15:12.561Z,1.70
2019-02-17T12:17:41.186Z,1.83
2019-02-17T12:20:34.015Z,1.90
2019-02-17T12:23:06.963Z,2.50
2019-02-17T12:25:42.852Z,2.07
2019-02-17T12:28:16.175Z,1.80
2019-02-17T12:30:46.295Z,1.93
2019-02-17T12:33:19.368Z,1.98
2019-02-17T12:35:46.124Z,2.00
2019-02-17T12:38:14.811Z,2.40
2019-02-17T12:40:43.498Z,2.00
2019-02-17T12:43:12.285Z,1.85
2019-02-17T12:45:42.518Z,1.80
2019-02-17T12:48:11.301Z,1.90
2019-02-17T12:50:39.984Z,1.83
2019-02-17T12:53:09.081Z,2.20
2019-02-17T12:55:39.304Z,1.80
2019-02-17T12:58:08.501Z,1.93
2019-02-17T13:00:37.296Z,1.50
2019-02-17T13:03:05.975Z,1.37
2019-02-17T13:05:34.766Z,1.40
2019-02-17T13:08:03.451Z,1.37
2019-02-17T13:10:32.137Z,1.70
2019-02-17T13:13:00.826Z,1.73
2019-02-17T13:15:30.745Z,1.40
2019-02-17T13:18:00.968Z,1.57
2019-02-17T13:20:29.657Z,1.87
2019-02-17T13:22:58.352Z,1.73
2019-02-17T13:25:27.024Z,1.70
2019-02-17T13:27:55.709Z,1.67
2019-02-17T13:30:25.492Z,1.70
2019-02-17T13:32:54.104Z,1.67
2019-02-17T13:35:24.329Z,1.80
2019-02-17T13:37:53.091Z,2.13
2019-02-17T13:40:21.801Z,2.10
2019-02-17T13:42:50.488Z,1.70
2019-02-17T13:45:19.242Z,1.60
2019-02-17T13:47:47.862Z,1.73
2019-02-17T13:50:17.150Z,1.85
2019-02-17T13:52:46.066Z,2.13
2019-02-17T13:55:16.379Z,1.60
2019-02-17T13:57:45.267Z,1.50
2019-02-17T14:00:20.371Z,1.60
2019-02-17T14:02:48.993Z,2.30
2019-02-17T14:05:17.701Z,2.17
2019-02-17T14:07:46.374Z,2.30
2019-02-17T14:10:15.268Z,2.20
2019-02-17T14:12:43.941Z,1.90
2019-02-17T14:15:16.414Z,2.17
2019-02-17T14:17:45.000Z,2.93
2019-02-17T14:20:13.601Z,1.85
2019-02-17T14:22:42.193Z,2.03
2019-02-17T14:25:11.877Z,2.00
2019-02-17T14:27:40.464Z,2.00
2019-02-17T14:30:13.459Z,2.10
2019-02-17T14:32:42.136Z,2.17
2019-02-17T14:35:11.593Z,1.57
2019-02-17T14:37:40.255Z,1.90
2019-02-17T14:40:13.859Z,1.98
2019-02-17T14:42:42.438Z,2.10
2019-02-17T14:45:15.991Z,1.90
2019-02-17T14:47:44.575Z,1.80
2019-02-17T14:50:13.160Z,2.30
2019-02-17T14:52:41.756Z,1.80
2019-02-17T14:55:12.153Z,1.80
2019-02-17T14:57:40.756Z,2.10
2019-02-17T15:00:17.402Z,1.70
2019-02-17T15:02:46.124Z,1.77
2019-02-17T15:05:14.800Z,2.00
2019-02-17T15:07:43.386Z,2.07
2019-02-17T15:10:13.836Z,2.13
2019-02-17T15:12:42.496Z,13.50
2019-02-17T15:15:16.089Z,2.20
2019-02-17T15:17:44.672Z,2.10
2019-02-17T15:20:18.236Z,2.20
2019-02-17T15:22:46.820Z,2.10
2019-02-17T15:25:15.403Z,2.20
2019-02-17T15:27:44.056Z,2.35
2019-02-17T15:30:15.014Z,2.60
2019-02-17T15:32:43.599Z,2.50
2019-02-17T15:35:12.861Z,2.00
2019-02-17T15:37:41.444Z,2.50
2019-02-17T15:40:15.051Z,2.17
2019-02-17T15:42:43.689Z,2.33
2019-02-17T15:45:13.565Z,1.83
2019-02-17T15:47:42.147Z,1.70
2019-02-17T15:50:12.655Z,2.02
2019-02-17T15:52:41.239Z,2.25
2019-02-17T15:55:12.257Z,2.17
2019-02-17T15:57:40.855Z,1.87
2019-02-17T16:00:16.106Z,2.00
2019-02-17T16:02:44.689Z,1.90
2019-02-17T16:05:13.315Z,2.27
2019-02-17T16:07:41.904Z,2.10
2019-02-17T16:10:12.368Z,2.05
2019-02-17T16:12:40.952Z,2.13
2019-02-17T16:15:23.076Z,2.10
2019-02-17T16:17:51.663Z,2.03
2019-02-17T16:20:20.241Z,1.92
2019-02-17T16:22:48.834Z,2.20
2019-02-17T16:25:17.440Z,2.30
2019-02-17T16:27:46.106Z,1.90
2019-02-17T16:30:22.822Z,2.40
2019-02-17T16:32:51.410Z,2.43
2019-02-17T16:35:19.987Z,2.43
2019-02-17T16:37:48.717Z,2.97
2019-02-17T16:40:20.481Z,3.00
2019-02-17T16:42:49.131Z,3.23
2019-02-17T16:45:17.866Z,3.17
2019-02-17T16:47:46.462Z,2.70
2019-02-17T16:50:17.809Z,2.90
2019-02-17T16:52:46.597Z,3.10
2019-02-17T16:55:15.214Z,3.15
2019-02-17T16:57:43.797Z,2.67
2019-02-17T17:00:16.493Z,3.17
2019-02-17T17:02:45.164Z,2.73
2019-02-17T17:05:13.734Z,3.53
2019-02-17T17:07:42.513Z,3.20
2019-02-17T17:10:14.220Z,3.83
2019-02-17T17:12:42.886Z,3.33
2019-02-17T17:15:12.036Z,3.42
2019-02-17T17:17:44.540Z,3.40
2019-02-17T17:20:18.496Z,3.40
2019-02-17T17:22:47.198Z,3.40
2019-02-17T17:25:15.809Z,3.00
2019-02-17T17:27:44.397Z,3.40
2019-02-17T17:30:19.905Z,3.10
2019-02-17T17:32:48.488Z,3.07
2019-02-17T17:35:17.113Z,3.30
2019-02-17T17:37:46.699Z,3.00
2019-02-17T17:40:16.280Z,3.35
2019-02-17T17:42:45.011Z,2.77
2019-02-17T17:45:18.923Z,2.63
2019-02-17T17:47:47.564Z,2.87
2019-02-17T17:50:16.658Z,3.10
2019-02-17T17:52:45.244Z,3.03
2019-02-17T17:55:14.093Z,3.23
2019-02-17T17:57:42.670Z,2.77
2019-02-17T18:00:15.304Z,3.03
2019-02-17T18:02:43.992Z,3.30
2019-02-17T18:05:13.045Z,3.50
2019-02-17T18:07:41.633Z,3.87
2019-02-17T18:10:15.225Z,3.60
2019-02-17T18:12:43.804Z,3.63
2019-02-17T18:15:14.829Z,4.00
2019-02-17T18:17:53.467Z,4.37
2019-02-17T18:20:14.061Z,4.40
2019-02-17T18:22:42.645Z,4.20
2019-02-17T18:25:13.899Z,4.60
2019-02-17T18:27:42.493Z,4.40
2019-02-17T18:30:22.074Z,5.10
2019-02-17T18:32:50.653Z,4.50
2019-02-17T18:35:20.650Z,4.83
2019-02-17T18:37:49.587Z,5.50
2019-02-17T18:40:20.204Z,4.83
2019-02-17T18:42:48.770Z,5.20
2019-02-17T18:45:17.476Z,6.00
2019-02-17T18:47:46.175Z,5.87
2019-02-17T18:50:18.469Z,5.30
2019-02-17T18:52:47.056Z,6.30
2019-02-17T18:55:15.766Z,5.33
2019-02-17T18:57:50.081Z,5.50
2019-02-17T19:00:25.791Z,5.30
2019-02-17T19:02:54.420Z,5.70
2019-02-17T19:05:31.597Z,5.97
2019-02-17T19:07:53.408Z,5.80
2019-02-17T19:10:21.997Z,6.23
2019-02-17T19:12:50.598Z,6.10
2019-02-17T19:15:20.466Z,6.85
2019-02-17T19:17:49.122Z,6.57
2019-02-17T19:20:31.975Z,6.93
2019-02-17T19:23:00.560Z,6.97
2019-02-17T19:25:29.265Z,7.33
2019-02-17T19:27:59.468Z,7.17
2019-02-17T19:30:28.163Z,6.87
2019-02-17T19:32:58.377Z,7.17
2019-02-17T19:35:27.067Z,6.97
2019-02-17T19:37:55.651Z,6.87
2019-02-17T19:40:24.234Z,6.72
2019-02-17T19:42:52.830Z,6.97
2019-02-17T19:45:21.506Z,6.75
2019-02-17T19:47:50.093Z,7.20
2019-02-17T19:50:18.774Z,6.70
2019-02-17T19:52:47.565Z,5.97
2019-02-17T19:55:16.250Z,6.30
2019-02-17T19:57:44.936Z,6.60
2019-02-17T20:00:18.901Z,7.20
2019-02-17T20:02:54.835Z,6.80
2019-02-17T20:05:37.925Z,6.05
2019-02-17T20:08:07.489Z,6.80
2019-02-17T20:10:36.118Z,6.00
2019-02-17T20:13:05.315Z,6.70
2019-02-17T20:15:35.127Z,6.50
2019-02-17T20:18:05.354Z,6.53
2019-02-17T20:20:34.043Z,6.40
2019-02-17T20:23:02.726Z,6.27
2019-02-17T20:25:31.389Z,6.57
2019-02-17T20:27:59.975Z,7.07
2019-02-17T20:30:28.587Z,6.73
2019-02-17T20:32:57.266Z,5.93
2019-02-17T20:35:25.951Z,7.00
2019-02-17T20:37:54.542Z,6.83
2019-02-17T20:40:23.219Z,6.70
2019-02-17T20:42:51.905Z,6.70
2019-02-17T20:45:22.131Z,6.35
2019-02-17T20:47:50.815Z,6.93
2019-02-17T20:50:19.797Z,6.47
2019-02-17T20:52:48.402Z,6.20
2019-02-17T20:55:16.980Z,6.33
2019-02-17T20:57:45.704Z,6.07
2019-02-17T21:00:16.784Z,6.75
2019-02-17T21:02:45.392Z,5.83
2019-02-17T21:05:14.674Z,5.72
2019-02-17T21:07:43.274Z,6.67
2019-02-17T21:10:13.849Z,7.90
2019-02-17T21:12:42.494Z,5.30
2019-02-17T21:15:13.386Z,4.35
2019-02-17T21:17:42.013Z,4.80
2019-02-17T21:20:12.740Z,4.67
2019-02-17T21:22:41.455Z,5.00
2019-02-17T21:25:12.719Z,5.63
2019-02-17T21:27:41.985Z,4.60
2019-02-17T21:30:18.248Z,4.77
2019-02-17T21:32:47.325Z,4.73
2019-02-17T21:35:16.662Z,5.50
2019-02-17T21:37:45.340Z,4.70
2019-02-17T21:40:14.429Z,5.92
2019-02-17T21:42:43.012Z,5.00
2019-02-17T21:45:14.924Z,5.57
2019-02-17T21:47:45.195Z,5.13
2019-02-17T21:50:14.567Z,4.70
2019-02-17T21:52:43.180Z,4.40
2019-02-17T21:55:13.280Z,4.07
2019-02-17T21:57:43.525Z,4.40
2019-02-17T22:00:20.201Z,4.45
2019-02-17T22:02:48.912Z,4.13
2019-02-17T22:05:17.574Z,4.17
2019-02-17T22:07:47.487Z,3.83
2019-02-17T22:10:19.984Z,3.90
2019-02-17T22:12:51.042Z,4.77
2019-02-17T22:15:20.278Z,4.83
2019-02-17T22:17:48.888Z,4.67
2019-02-17T22:20:17.579Z,5.15
2019-02-17T22:22:46.262Z,4.47
2019-02-17T22:25:17.820Z,4.40
2019-02-17T22:27:46.502Z,4.77
2019-02-17T22:30:15.901Z,4.70
2019-02-17T22:32:44.574Z,5.10
2019-02-17T22:35:13.689Z,4.17
2019-02-17T22:37:42.270Z,4.13
2019-02-17T22:40:15.059Z,4.53
2019-02-17T22:42:43.715Z,4.90
2019-02-17T22:45:13.039Z,4.13
2019-02-17T22:47:41.724Z,4.43
2019-02-17T22:50:17.067Z,4.50
2019-02-17T22:52:45.960Z,4.60
2019-02-17T22:55:14.953Z,4.70
2019-02-17T22:57:45.175Z,4.83
2019-02-17T23:00:23.282Z,4.57
2019-02-17T23:02:51.972Z,5.17
2019-02-17T23:05:20.653Z,4.87
2019-02-17T23:07:49.339Z,4.93
2019-02-17T23:10:18.130Z,4.87
2019-02-17T23:12:46.715Z,4.90
2019-02-17T23:15:17.039Z,4.65
2019-02-17T23:17:45.726Z,4.07
2019-02-17T23:20:14.422Z,4.10
2019-02-17T23:22:43.097Z,4.13
2019-02-17T23:25:12.500Z,4.05
2019-02-17T23:27:41.186Z,3.93
2019-02-17T23:30:11.425Z,3.75
2019-02-17T23:32:40.097Z,3.80
2019-02-17T23:35:09.805Z,4.37
2019-02-17T23:37:38.491Z,3.97
2019-02-17T23:40:11.351Z,2.93
2019-02-17T23:42:39.960Z,3.53
2019-02-17T23:45:11.395Z,3.50
2019-02-17T23:47:39.996Z,3.17
2019-02-17T23:50:13.793Z,3.17
2019-02-17T23:52:42.696Z,3.30
2019-02-17T23:55:12.983Z,3.47
2019-02-17T23:57:41.603Z,4.03
